createdAt,value
2023-03-30T00:01:06.284Z,12.33
2023-03-30T00:03:34.002Z,9.23
2023-03-30T00:06:05.239Z,9.13
2023-03-30T00:08:33.486Z,9.33
2023-03-30T00:11:27.182Z,8.23
2023-03-30T00:13:54.645Z,7.90
2023-03-30T00:16:22.931Z,6.47
2023-03-30T00:18:50.656Z,6.90
2023-03-30T00:21:24.866Z,5.27
2023-03-30T00:23:52.543Z,5.80
2023-03-30T00:26:20.663Z,5.47
2023-03-30T00:28:48.075Z,5.27
2023-03-30T00:31:15.462Z,4.20
2023-03-30T00:33:47.126Z,5.33
2023-03-30T00:36:15.753Z,4.90
2023-03-30T00:38:44.068Z,4.63
2023-03-30T00:41:12.321Z,3.80
2023-03-30T00:43:56.074Z,3.73
2023-03-30T00:46:25.010Z,3.83
2023-03-30T00:48:53.005Z,3.63
2023-03-30T00:51:20.522Z,3.23
2023-03-30T00:53:50.346Z,3.00
2023-03-30T00:56:20.271Z,3.33
2023-03-30T00:58:47.797Z,3.40
2023-03-30T01:01:18.983Z,3.00
2023-03-30T01:03:48.498Z,3.30
2023-03-30T01:06:24.236Z,3.23
2023-03-30T01:08:52.883Z,3.50
2023-03-30T01:11:21.599Z,3.37
2023-03-30T01:13:52.741Z,3.10
2023-03-30T01:16:31.375Z,3.10
2023-03-30T01:19:01.975Z,2.93
2023-03-30T01:21:41.262Z,3.27
2023-03-30T01:24:20.401Z,3.17
2023-03-30T01:26:48.455Z,3.50
2023-03-30T01:29:29.174Z,3.70
2023-03-30T01:32:25.860Z,4.30
2023-03-30T01:35:10.799Z,3.23
2023-03-30T01:37:41.573Z,3.13
2023-03-30T01:40:15.469Z,2.93
2023-03-30T01:42:55.408Z,3.13
2023-03-30T01:45:25.760Z,2.97
2023-03-30T01:47:53.306Z,2.93
2023-03-30T01:50:26.699Z,3.20
2023-03-30T01:57:32.191Z,4.43
2023-03-30T02:00:01.757Z,2.77
2023-03-30T02:02:42.156Z,2.63
2023-03-30T02:05:10.375Z,2.90
2023-03-30T02:07:39.856Z,2.37
2023-03-30T02:10:08.116Z,2.83
2023-03-30T02:12:36.580Z,3.63
2023-03-30T02:15:10.686Z,2.80
2023-03-30T02:17:38.303Z,2.60
2023-03-30T02:20:09.460Z,2.63
2023-03-30T02:22:37.201Z,3.00
2023-03-30T02:32:58.811Z,2.87
2023-03-30T02:35:35.979Z,3.03
2023-03-30T02:38:09.846Z,3.53
2023-03-30T02:40:37.978Z,3.80
2023-03-30T02:43:05.519Z,3.60
2023-03-30T02:45:50.501Z,3.60
2023-03-30T02:48:21.596Z,3.93
2023-03-30T02:50:58.057Z,4.80
2023-03-30T02:53:54.643Z,4.13
2023-03-30T02:56:44.755Z,4.33
2023-03-30T02:59:14.093Z,5.30
2023-03-30T03:01:41.555Z,5.00
2023-03-30T03:04:22.130Z,5.03
2023-03-30T03:07:07.912Z,5.40
2023-03-30T03:09:36.810Z,6.23
2023-03-30T03:12:05.129Z,5.90
2023-03-30T03:14:37.706Z,5.83
2023-03-30T03:17:05.869Z,6.70
2023-03-30T03:19:43.420Z,5.70
2023-03-30T03:22:11.595Z,7.40
2023-03-30T03:24:40.717Z,8.57
2023-03-30T03:27:26.328Z,8.27
2023-03-30T03:30:17.686Z,7.40
2023-03-30T03:32:52.109Z,7.53
2023-03-30T03:35:19.624Z,7.60
2023-03-30T03:37:47.081Z,6.20
2023-03-30T03:40:14.771Z,6.57
2023-03-30T03:42:42.147Z,4.73
2023-03-30T03:45:11.966Z,5.47
2023-03-30T03:47:51.728Z,3.83
2023-03-30T03:50:24.790Z,3.67
2023-03-30T03:52:52.943Z,3.00
2023-03-30T03:55:20.363Z,3.37
2023-03-30T03:57:47.746Z,3.40
2023-03-30T04:00:18.154Z,3.87
2023-03-30T04:02:50.862Z,3.40
2023-03-30T04:05:18.888Z,3.13
2023-03-30T04:07:46.361Z,2.97
2023-03-30T04:10:14.424Z,2.87
2023-03-30T04:13:07.976Z,4.33
2023-03-30T04:15:47.200Z,3.10
2023-03-30T04:18:21.668Z,3.43
2023-03-30T04:21:07.623Z,4.90
2023-03-30T04:23:57.976Z,3.37
2023-03-30T04:26:49.009Z,3.80
2023-03-30T04:29:31.377Z,3.53
2023-03-30T04:32:26.376Z,3.43
2023-03-30T04:35:03.386Z,3.10
2023-03-30T04:38:00.202Z,3.40
2023-03-30T04:40:46.399Z,2.87
2023-03-30T04:43:32.203Z,3.37
2023-03-30T04:46:07.904Z,3.13
2023-03-30T04:48:53.664Z,3.27
2023-03-30T04:51:37.560Z,3.30
2023-03-30T04:54:33.323Z,3.23
2023-03-30T04:57:19.360Z,3.00
2023-03-30T05:00:03.280Z,3.38
2023-03-30T05:02:53.896Z,3.17
2023-03-30T05:05:41.334Z,3.20
2023-03-30T05:08:27.487Z,4.23
2023-03-30T05:11:22.662Z,3.27
2023-03-30T05:13:56.661Z,2.33
2023-03-30T05:16:46.189Z,2.27
2023-03-30T05:19:19.525Z,2.60
2023-03-30T05:22:16.372Z,2.30
2023-03-30T05:25:07.250Z,2.03
2023-03-30T05:27:51.999Z,2.13
2023-03-30T05:30:27.778Z,2.40
2023-03-30T05:33:13.623Z,2.00
2023-03-30T05:35:59.627Z,2.37
2023-03-30T05:38:47.335Z,2.37
2023-03-30T05:41:46.803Z,2.30
2023-03-30T05:44:34.868Z,3.27
2023-03-30T05:47:22.115Z,2.83
2023-03-30T05:50:10.039Z,2.60
2023-03-30T05:52:49.003Z,3.07
2023-03-30T05:55:27.745Z,3.17
2023-03-30T05:58:14.051Z,2.40
2023-03-30T06:01:12.122Z,2.37
2023-03-30T06:03:42.119Z,2.57
2023-03-30T06:06:11.061Z,2.23
2023-03-30T06:08:39.288Z,3.23
2023-03-30T06:11:08.438Z,2.30
2023-03-30T06:13:46.148Z,2.80
2023-03-30T06:16:13.620Z,2.40
2023-03-30T06:18:41.142Z,2.20
2023-03-30T06:21:12.762Z,2.27
2023-03-30T06:23:58.872Z,2.93
2023-03-30T06:26:29.520Z,2.40
2023-03-30T06:28:57.872Z,2.97
2023-03-30T06:31:26.144Z,2.20
2023-03-30T06:34:06.693Z,2.77
2023-03-30T06:36:44.919Z,2.83
2023-03-30T06:39:15.079Z,2.43
2023-03-30T06:41:42.473Z,2.60
2023-03-30T06:44:25.088Z,2.53
2023-03-30T06:46:52.544Z,2.30
2023-03-30T06:49:20.673Z,2.73
2023-03-30T06:52:08.827Z,2.33
2023-03-30T06:54:36.636Z,2.03
2023-03-30T06:57:07.927Z,2.17
2023-03-30T06:59:35.390Z,2.60
2023-03-30T07:02:21.913Z,2.47
2023-03-30T07:05:07.115Z,1.93
2023-03-30T07:07:55.164Z,2.47
2023-03-30T07:10:22.770Z,3.03
2023-03-30T07:12:50.719Z,3.33
2023-03-30T07:15:18.908Z,2.97
2023-03-30T07:17:46.435Z,1.87
2023-03-30T07:20:16.781Z,2.13
2023-03-30T07:23:11.435Z,2.63
2023-03-30T07:25:41.928Z,2.17
2023-03-30T07:28:32.551Z,2.33
2023-03-30T07:31:07.573Z,2.63
2023-03-30T07:33:37.320Z,2.20
2023-03-30T07:36:06.367Z,2.30
2023-03-30T07:38:34.323Z,2.70
2023-03-30T07:41:02.196Z,2.33
2023-03-30T07:43:31.019Z,2.47
2023-03-30T07:45:58.572Z,2.23
2023-03-30T07:48:32.925Z,2.10
2023-03-30T07:51:05.055Z,2.83
2023-03-30T07:53:35.553Z,2.80
2023-03-30T07:56:07.820Z,2.40
2023-03-30T07:58:43.523Z,2.63
2023-03-30T08:01:11.410Z,2.20
2023-03-30T08:03:59.110Z,2.87
2023-03-30T08:06:26.966Z,2.17
2023-03-30T08:08:58.357Z,2.73
2023-03-30T08:11:26.062Z,2.30
2023-03-30T08:13:53.475Z,2.80
2023-03-30T08:16:21.000Z,2.30
2023-03-30T08:18:48.487Z,3.83
2023-03-30T08:21:16.097Z,2.93
2023-03-30T08:23:43.602Z,2.50
2023-03-30T08:26:11.378Z,2.37
2023-03-30T08:28:39.266Z,3.50
2023-03-30T08:31:08.342Z,3.27
2023-03-30T08:33:36.311Z,2.17
2023-03-30T08:36:04.492Z,2.40
2023-03-30T08:38:32.933Z,2.83
2023-03-30T08:41:00.407Z,2.23
2023-03-30T08:43:40.352Z,2.60
2023-03-30T08:46:12.676Z,2.10
2023-03-30T08:48:42.596Z,2.20
2023-03-30T08:51:13.082Z,2.60
2023-03-30T08:53:41.157Z,1.93
2023-03-30T08:56:11.756Z,2.27
2023-03-30T08:58:44.255Z,2.20
2023-03-30T09:01:17.903Z,2.13
2023-03-30T09:03:51.253Z,2.57
2023-03-30T09:06:28.045Z,2.23
2023-03-30T09:08:55.579Z,2.80
2023-03-30T09:11:28.503Z,2.40
2023-03-30T09:13:56.661Z,3.23
2023-03-30T09:16:36.377Z,2.30
2023-03-30T09:19:04.954Z,2.23
2023-03-30T09:21:32.618Z,3.13
2023-03-30T09:24:01.678Z,2.20
2023-03-30T09:26:58.624Z,3.27
2023-03-30T09:29:27.292Z,2.53
2023-03-30T09:31:57.812Z,2.87
2023-03-30T09:34:31.270Z,2.60
2023-03-30T09:37:04.655Z,3.63
2023-03-30T09:39:33.638Z,3.13
2023-03-30T09:42:12.808Z,3.37
2023-03-30T09:44:45.425Z,2.33
2023-03-30T09:47:18.882Z,2.47
2023-03-30T09:49:47.160Z,2.53
2023-03-30T09:52:20.810Z,2.40
2023-03-30T09:54:48.220Z,2.50
2023-03-30T09:57:24.888Z,2.83
2023-03-30T09:59:56.473Z,2.70
2023-03-30T10:02:25.445Z,3.23
2023-03-30T10:04:53.169Z,2.93
2023-03-30T10:07:25.539Z,2.20
2023-03-30T10:09:52.937Z,2.83
2023-03-30T10:12:20.360Z,2.97
2023-03-30T10:14:47.737Z,2.90
2023-03-30T10:17:20.329Z,2.67
2023-03-30T10:19:51.724Z,2.10
2023-03-30T10:22:25.873Z,2.63
2023-03-30T10:24:55.335Z,3.30
2023-03-30T10:27:28.213Z,2.27
2023-03-30T10:29:55.724Z,1.90
2023-03-30T10:32:31.092Z,1.53
2023-03-30T10:35:01.950Z,2.83
2023-03-30T10:37:37.109Z,2.27
2023-03-30T10:40:11.841Z,2.33
2023-03-30T10:42:40.105Z,2.07
2023-03-30T10:45:07.837Z,2.47
2023-03-30T10:47:42.706Z,2.20
2023-03-30T10:50:18.951Z,2.53
2023-03-30T10:52:59.117Z,2.50
2023-03-30T10:55:39.163Z,2.73
2023-03-30T10:58:16.029Z,2.17
2023-03-30T11:00:48.156Z,2.03
2023-03-30T11:03:21.938Z,2.50
2023-03-30T11:05:52.783Z,2.00
2023-03-30T11:08:30.586Z,2.03
2023-03-30T11:10:59.272Z,1.97
2023-03-30T11:13:33.072Z,3.23
2023-03-30T11:16:11.184Z,3.13
2023-03-30T11:18:47.805Z,1.70
2023-03-30T11:21:18.156Z,2.10
2023-03-30T11:23:53.688Z,2.23
2023-03-30T11:26:24.361Z,2.03
2023-03-30T11:28:58.158Z,2.90
2023-03-30T11:31:33.167Z,1.63
2023-03-30T11:34:20.475Z,2.43
2023-03-30T11:37:14.492Z,1.80
2023-03-30T11:39:46.260Z,2.10
2023-03-30T11:42:27.768Z,2.27
2023-03-30T11:44:55.195Z,1.70
2023-03-30T11:47:22.557Z,2.67
2023-03-30T11:49:50.333Z,2.50
2023-03-30T11:52:29.888Z,2.47
2023-03-30T11:55:12.836Z,1.30
2023-03-30T11:57:46.380Z,1.93
2023-03-30T12:00:23.381Z,1.17
2023-03-30T12:02:56.536Z,1.10
2023-03-30T12:05:28.982Z,1.70
2023-03-30T12:08:08.558Z,1.87
2023-03-30T12:10:43.115Z,2.13
2023-03-30T12:13:14.722Z,1.67
2023-03-30T12:15:52.074Z,1.60
2023-03-30T12:18:29.892Z,1.80
2023-03-30T12:21:03.365Z,2.00
2023-03-30T12:23:47.674Z,1.97
2023-03-30T12:26:31.834Z,1.63
2023-03-30T12:31:52.535Z,1.60
2023-03-30T12:34:20.771Z,1.70
2023-03-30T12:36:49.617Z,1.50
2023-03-30T12:39:26.140Z,1.97
2023-03-30T12:42:05.617Z,2.00
2023-03-30T12:44:40.497Z,1.77
2023-03-30T12:47:19.991Z,2.17
2023-03-30T12:50:06.763Z,2.07
2023-03-30T12:52:37.287Z,2.60
2023-03-30T12:55:09.963Z,1.50
2023-03-30T12:57:42.424Z,2.20
2023-03-30T13:00:23.932Z,2.77
2023-03-30T13:02:59.696Z,1.67
2023-03-30T13:05:32.073Z,1.93
2023-03-30T13:08:03.463Z,4.97
2023-03-30T13:10:31.192Z,2.40
2023-03-30T13:12:59.783Z,2.40
2023-03-30T13:15:33.422Z,2.33
2023-03-30T13:18:00.833Z,2.30
2023-03-30T13:20:30.693Z,3.00
2023-03-30T13:23:25.844Z,2.00
2023-03-30T13:26:07.876Z,2.90
2023-03-30T13:28:56.595Z,2.70
2023-03-30T13:31:31.342Z,3.00
2023-03-30T13:34:13.210Z,3.03
2023-03-30T13:36:46.521Z,3.00
2023-03-30T13:39:42.446Z,1.93
2023-03-30T13:42:25.407Z,3.73
2023-03-30T13:45:07.273Z,2.90
2023-03-30T13:47:37.822Z,4.43
2023-03-30T13:50:20.609Z,3.30
2023-03-30T13:52:48.651Z,2.90
2023-03-30T13:55:23.132Z,2.57
2023-03-30T13:57:54.964Z,2.53
2023-03-30T14:00:33.657Z,2.37
2023-03-30T14:03:18.740Z,2.77
2023-03-30T14:05:46.170Z,2.70
2023-03-30T14:08:13.472Z,2.60
2023-03-30T14:10:40.811Z,3.50
2023-03-30T14:13:12.703Z,3.70
2023-03-30T14:15:45.355Z,3.23
2023-03-30T14:18:14.394Z,2.40
2023-03-30T14:20:44.731Z,2.83
2023-03-30T14:23:16.587Z,2.70
2023-03-30T14:25:43.904Z,2.63
2023-03-30T14:28:18.686Z,2.53
2023-03-30T14:30:53.651Z,1.83
2023-03-30T14:33:21.013Z,1.40
2023-03-30T14:35:53.587Z,1.53
2023-03-30T14:38:22.794Z,2.07
2023-03-30T14:40:50.936Z,1.30
2023-03-30T14:43:26.072Z,1.93
2023-03-30T14:45:54.540Z,1.90
2023-03-30T14:48:24.445Z,2.77
2023-03-30T14:50:52.091Z,2.47
2023-03-30T14:53:22.001Z,2.10
2023-03-30T14:55:49.715Z,2.70
2023-03-30T14:58:17.553Z,2.43
2023-03-30T15:00:46.045Z,2.87
2023-03-30T15:03:26.461Z,2.60
2023-03-30T15:06:01.616Z,2.97
2023-03-30T15:08:31.718Z,2.60
2023-03-30T15:11:04.880Z,2.10
2023-03-30T15:13:40.687Z,2.27
2023-03-30T15:16:08.566Z,3.27
2023-03-30T15:18:37.543Z,3.13
2023-03-30T15:21:05.168Z,2.50
2023-03-30T15:23:36.348Z,2.97
2023-03-30T15:26:04.635Z,2.87
2023-03-30T15:28:35.153Z,2.37
2023-03-30T15:31:02.748Z,2.07
2023-03-30T15:33:37.488Z,1.93
2023-03-30T15:36:29.178Z,2.73
2023-03-30T15:38:58.755Z,1.73
2023-03-30T15:41:44.747Z,1.93
2023-03-30T15:44:13.189Z,1.67
2023-03-30T15:46:41.458Z,2.00
2023-03-30T15:49:12.268Z,2.27
2023-03-30T15:51:40.600Z,1.97
2023-03-30T15:54:15.492Z,2.30
2023-03-30T15:56:42.845Z,1.67
2023-03-30T15:59:13.818Z,1.30
2023-03-30T16:01:43.456Z,1.80
2023-03-30T16:04:13.773Z,2.23
2023-03-30T16:06:43.183Z,1.93
2023-03-30T16:09:11.413Z,2.13
2023-03-30T16:11:39.182Z,2.27
2023-03-30T16:14:07.800Z,2.50
2023-03-30T16:16:35.441Z,1.90
2023-03-30T16:19:02.803Z,3.00
2023-03-30T16:21:30.591Z,1.80
2023-03-30T16:23:58.098Z,2.17
2023-03-30T16:26:25.537Z,1.70
2023-03-30T16:28:54.519Z,2.97
2023-03-30T16:31:23.576Z,1.87
2023-03-30T16:33:51.362Z,2.37
2023-03-30T16:36:20.642Z,2.63
2023-03-30T16:38:48.524Z,3.47
2023-03-30T16:41:18.197Z,2.97
2023-03-30T16:43:45.755Z,3.10
2023-03-30T16:46:14.307Z,2.30
2023-03-30T16:48:41.703Z,3.17
2023-03-30T16:51:11.026Z,2.60
2023-03-30T16:53:38.564Z,2.80
2023-03-30T16:56:06.031Z,3.17
2023-03-30T16:58:33.445Z,2.80
2023-03-30T17:01:04.442Z,2.63
2023-03-30T17:03:32.159Z,3.07
2023-03-30T17:05:59.501Z,3.00
2023-03-30T17:08:28.956Z,2.77
2023-03-30T17:11:02.748Z,3.57
2023-03-30T17:13:31.839Z,3.23
2023-03-30T17:16:01.191Z,5.47
2023-03-30T17:18:28.945Z,5.30
2023-03-30T17:21:00.873Z,5.07
2023-03-30T17:23:34.847Z,4.05
2023-03-30T17:26:02.683Z,3.27
2023-03-30T17:28:34.111Z,4.57
2023-03-30T17:31:02.645Z,4.43
2023-03-30T17:33:31.753Z,3.13
2023-03-30T17:36:00.768Z,2.87
2023-03-30T17:38:29.817Z,3.00
2023-03-30T17:40:57.418Z,2.70
2023-03-30T17:43:25.216Z,3.23
2023-03-30T17:45:52.744Z,2.73
2023-03-30T17:48:21.231Z,2.70
2023-03-30T17:50:49.767Z,2.33
2023-03-30T17:53:21.196Z,1.93
2023-03-30T17:55:49.749Z,2.00
2023-03-30T17:58:24.584Z,2.30
2023-03-30T18:00:52.735Z,1.80
2023-03-30T18:03:21.485Z,1.87
2023-03-30T18:05:49.185Z,1.90
2023-03-30T18:08:21.426Z,1.70
2023-03-30T18:10:52.912Z,1.73
2023-03-30T18:13:21.162Z,2.27
2023-03-30T18:15:49.874Z,1.67
2023-03-30T18:18:22.701Z,2.20
2023-03-30T18:20:51.513Z,1.90
2023-03-30T18:23:19.091Z,2.40
2023-03-30T18:25:47.185Z,2.40
2023-03-30T18:28:17.083Z,2.27
2023-03-30T18:30:44.640Z,3.23
2023-03-30T18:33:12.863Z,3.53
2023-03-30T18:35:40.447Z,2.67
2023-03-30T18:38:07.856Z,3.07
2023-03-30T18:40:37.141Z,3.03
2023-03-30T18:43:05.259Z,3.90
2023-03-30T18:45:34.209Z,4.27
2023-03-30T18:48:02.740Z,4.87
2023-03-30T18:50:37.669Z,3.83
2023-03-30T18:53:06.551Z,5.13
2023-03-30T18:55:36.166Z,4.23
2023-03-30T18:58:06.559Z,3.97
2023-03-30T19:00:44.787Z,4.53
2023-03-30T19:03:14.172Z,3.77
2023-03-30T19:05:42.114Z,4.13
2023-03-30T19:08:13.093Z,4.13
2023-03-30T19:10:41.894Z,4.47
2023-03-30T19:13:12.824Z,4.20
2023-03-30T19:15:40.731Z,5.70
2023-03-30T19:18:08.560Z,6.20
2023-03-30T19:20:39.605Z,4.70
2023-03-30T19:23:07.489Z,5.63
2023-03-30T19:25:35.481Z,4.63
2023-03-30T19:28:04.463Z,4.57
2023-03-30T19:30:33.647Z,5.33
2023-03-30T19:33:03.307Z,4.87
2023-03-30T19:35:30.986Z,4.50
2023-03-30T19:37:58.429Z,4.77
2023-03-30T19:40:25.972Z,4.43
2023-03-30T19:42:53.525Z,5.10
2023-03-30T19:45:22.864Z,4.50
2023-03-30T19:47:50.495Z,4.90
2023-03-30T19:50:18.655Z,4.87
2023-03-30T19:52:50.805Z,5.23
2023-03-30T19:55:19.383Z,5.80
2023-03-30T19:57:47.068Z,4.70
2023-03-30T20:00:16.255Z,4.00
2023-03-30T20:02:44.968Z,4.50
2023-03-30T20:05:13.043Z,4.97
2023-03-30T20:07:41.107Z,4.50
2023-03-30T20:10:10.265Z,5.27
2023-03-30T20:12:37.704Z,4.97
2023-03-30T20:15:06.469Z,4.73
2023-03-30T20:17:36.387Z,4.30
2023-03-30T20:20:06.985Z,4.80
2023-03-30T20:22:38.885Z,3.93
2023-03-30T20:25:07.874Z,3.80
2023-03-30T20:27:35.889Z,3.80
2023-03-30T20:30:03.893Z,3.30
2023-03-30T20:32:31.306Z,4.13
2023-03-30T20:34:58.809Z,3.67
2023-03-30T20:37:26.175Z,4.10
2023-03-30T20:39:53.545Z,4.13
2023-03-30T20:42:26.263Z,4.13
2023-03-30T20:44:55.744Z,4.20
2023-03-30T20:47:23.446Z,4.07
2023-03-30T20:49:51.046Z,4.07
2023-03-30T20:52:18.459Z,4.77
2023-03-30T20:54:45.949Z,4.30
2023-03-30T20:57:13.591Z,4.90
2023-03-30T20:59:41.112Z,4.07
2023-03-30T21:02:08.488Z,4.73
2023-03-30T21:04:36.599Z,4.17
2023-03-30T21:07:04.346Z,4.40
2023-03-30T21:09:31.735Z,4.20
2023-03-30T21:11:59.123Z,4.07
2023-03-30T21:14:26.544Z,6.13
2023-03-30T21:16:53.962Z,4.33
2023-03-30T21:19:21.411Z,4.70
2023-03-30T21:21:48.773Z,4.80
2023-03-30T21:24:17.808Z,3.63
2023-03-30T21:26:45.208Z,5.03
2023-03-30T21:29:12.572Z,3.10
2023-03-30T21:31:40.593Z,4.60
2023-03-30T21:34:09.282Z,3.17
2023-03-30T21:36:36.795Z,3.47
2023-03-30T21:39:04.300Z,3.97
2023-03-30T21:41:31.713Z,3.80
2023-03-30T21:43:59.164Z,3.47
2023-03-30T21:46:26.946Z,3.30
2023-03-30T21:48:54.640Z,3.10
2023-03-30T21:51:29.902Z,2.90
2023-03-30T21:53:58.150Z,2.90
2023-03-30T21:56:26.838Z,3.07
2023-03-30T21:58:54.405Z,3.20
2023-03-30T22:01:25.898Z,3.70
2023-03-30T22:03:54.315Z,4.90
2023-03-30T22:06:22.478Z,2.83
2023-03-30T22:08:49.877Z,2.97
2023-03-30T22:11:22.027Z,4.00
2023-03-30T22:13:50.140Z,3.53
2023-03-30T22:16:24.313Z,3.00
2023-03-30T22:18:52.180Z,3.03
2023-03-30T22:21:21.141Z,3.27
2023-03-30T22:23:48.527Z,3.57
2023-03-30T22:26:16.081Z,3.27
2023-03-30T22:28:43.761Z,4.77
2023-03-30T22:31:13.757Z,3.37
2023-03-30T22:33:41.584Z,4.23
2023-03-30T22:36:38.364Z,3.83
2023-03-30T22:39:05.750Z,3.93
2023-03-30T22:41:33.218Z,4.07
2023-03-30T22:44:01.051Z,3.83
2023-03-30T22:46:28.625Z,3.83
2023-03-30T22:48:56.336Z,3.23
2023-03-30T22:51:27.608Z,3.77
2023-03-30T22:53:59.313Z,3.63
2023-03-30T22:56:27.426Z,3.00
2023-03-30T22:58:55.430Z,3.43
2023-03-30T23:01:22.993Z,3.30
2023-03-30T23:03:50.604Z,3.73
2023-03-30T23:06:19.126Z,4.20
2023-03-30T23:08:48.449Z,2.83
2023-03-30T23:11:16.228Z,3.33
2023-03-30T23:13:43.729Z,3.70
2023-03-30T23:16:11.160Z,3.10
2023-03-30T23:18:38.823Z,3.20
2023-03-30T23:21:07.452Z,2.40
2023-03-30T23:23:36.322Z,3.07
2023-03-30T23:26:09.748Z,3.23
2023-03-30T23:28:38.678Z,3.03
2023-03-30T23:31:17.486Z,3.50
2023-03-30T23:33:45.559Z,3.90
2023-03-30T23:36:19.315Z,3.27
2023-03-30T23:38:47.168Z,4.13
2023-03-30T23:41:15.835Z,3.07
2023-03-30T23:43:43.450Z,3.03
2023-03-30T23:46:11.301Z,2.57
2023-03-30T23:48:38.923Z,2.70
2023-03-30T23:51:06.721Z,2.57
2023-03-30T23:53:34.250Z,2.47
2023-03-30T23:56:06.127Z,2.90
2023-03-30T23:58:33.875Z,2.20
